sensor_id;sensor_type;location;lat;lon;timestamp;pressure;altitude;pressure_sealevel;temperature
30765;BMP180;494;48.744;10.106;2023-06-24T00:00:15;96601.00;;;18.70
30765;BMP180;494;48.744;10.106;2023-06-24T00:02:44;96606.00;;;18.80
30765;BMP180;494;48.744;10.106;2023-06-24T00:05:15;96515.00;;;18.80
30765;BMP180;494;48.744;10.106;2023-06-24T00:07:43;96494.00;;;18.70
30765;BMP180;494;48.744;10.106;2023-06-24T00:10:14;96565.00;;;18.70
30765;BMP180;494;48.744;10.106;2023-06-24T00:12:45;96497.00;;;18.80
30765;BMP180;494;48.744;10.106;2023-06-24T00:15:14;96607.00;;;18.70
30765;BMP180;494;48.744;10.106;2023-06-24T00:17:43;96549.00;;;18.50
30765;BMP180;494;48.744;10.106;2023-06-24T00:20:11;96565.00;;;18.60
30765;BMP180;494;48.744;10.106;2023-06-24T00:22:43;96454.00;;;18.70
30765;BMP180;494;48.744;10.106;2023-06-24T00:25:16;96588.00;;;18.80
30765;BMP180;494;48.744;10.106;2023-06-24T00:27:45;96606.00;;;18.70
30765;BMP180;494;48.744;10.106;2023-06-24T00:30:14;96620.00;;;18.80
30765;BMP180;494;48.744;10.106;2023-06-24T00:32:44;96575.00;;;18.70
30765;BMP180;494;48.744;10.106;2023-06-24T00:35:13;96530.00;;;18.40
30765;BMP180;494;48.744;10.106;2023-06-24T00:37:44;96469.00;;;18.70
30765;BMP180;494;48.744;10.106;2023-06-24T00:40:14;96556.00;;;18.70
30765;BMP180;494;48.744;10.106;2023-06-24T00:42:45;96496.00;;;18.70
30765;BMP180;494;48.744;10.106;2023-06-24T00:45:14;96606.00;;;18.70
30765;BMP180;494;48.744;10.106;2023-06-24T00:47:45;96598.00;;;18.80
30765;BMP180;494;48.744;10.106;2023-06-24T00:50:16;96380.00;;;18.60
30765;BMP180;494;48.744;10.106;2023-06-24T00:52:51;96584.00;;;18.60
30765;BMP180;494;48.744;10.106;2023-06-24T00:55:21;96454.00;;;18.60
30765;BMP180;494;48.744;10.106;2023-06-24T00:57:53;96604.00;;;18.70
30765;BMP180;494;48.744;10.106;2023-06-24T01:00:23;96599.00;;;18.80
30765;BMP180;494;48.744;10.106;2023-06-24T01:02:53;96600.00;;;18.80
30765;BMP180;494;48.744;10.106;2023-06-24T01:05:22;96596.00;;;18.60
30765;BMP180;494;48.744;10.106;2023-06-24T01:07:54;96602.00;;;18.70
30765;BMP180;494;48.744;10.106;2023-06-24T01:10:25;96600.00;;;18.80
30765;BMP180;494;48.744;10.106;2023-06-24T01:12:54;96554.00;;;18.80
30765;BMP180;494;48.744;10.106;2023-06-24T01:15:23;96571.00;;;18.60
30765;BMP180;494;48.744;10.106;2023-06-24T01:18:05;96547.00;;;18.60
30765;BMP180;494;48.744;10.106;2023-06-24T01:20:45;96538.00;;;18.20
30765;BMP180;494;48.744;10.106;2023-06-24T01:23:48;96586.00;;;18.60
30765;BMP180;494;48.744;10.106;2023-06-24T01:26:46;96475.00;;;18.60
30765;BMP180;494;48.744;10.106;2023-06-24T01:29:52;96590.00;;;18.60
30765;BMP180;494;48.744;10.106;2023-06-24T01:32:36;96588.00;;;18.50
30765;BMP180;494;48.744;10.106;2023-06-24T01:35:12;96478.00;;;18.50
30765;BMP180;494;48.744;10.106;2023-06-24T01:37:44;96521.00;;;18.50
30765;BMP180;494;48.744;10.106;2023-06-24T01:40:22;96583.00;;;18.40
30765;BMP180;494;48.744;10.106;2023-06-24T01:42:57;96575.00;;;18.30
30765;BMP180;494;48.744;10.106;2023-06-24T01:45:36;96468.00;;;18.10
30765;BMP180;494;48.744;10.106;2023-06-24T01:48:13;96584.00;;;18.10
30765;BMP180;494;48.744;10.106;2023-06-24T01:50:51;96542.00;;;18.10
30765;BMP180;494;48.744;10.106;2023-06-24T01:53:26;96572.00;;;18.00
30765;BMP180;494;48.744;10.106;2023-06-24T01:55:59;96499.00;;;18.00
30765;BMP180;494;48.744;10.106;2023-06-24T01:58:33;96572.00;;;17.90
30765;BMP180;494;48.744;10.106;2023-06-24T02:01:04;96571.00;;;17.70
30765;BMP180;494;48.744;10.106;2023-06-24T02:03:36;96458.00;;;17.70
30765;BMP180;494;48.744;10.106;2023-06-24T02:06:07;96556.00;;;17.60
30765;BMP180;494;48.744;10.106;2023-06-24T02:08:40;96472.00;;;17.70
30765;BMP180;494;48.744;10.106;2023-06-24T02:11:13;96499.00;;;17.50
30765;BMP180;494;48.744;10.106;2023-06-24T02:13:43;96489.00;;;17.40
30765;BMP180;494;48.744;10.106;2023-06-24T02:16:14;96467.00;;;17.40
30765;BMP180;494;48.744;10.106;2023-06-24T02:18:46;96545.00;;;17.30
30765;BMP180;494;48.744;10.106;2023-06-24T02:21:17;96334.00;;;17.30
30765;BMP180;494;48.744;10.106;2023-06-24T02:23:48;96541.00;;;17.30
30765;BMP180;494;48.744;10.106;2023-06-24T02:26:18;96522.00;;;17.10
30765;BMP180;494;48.744;10.106;2023-06-24T02:28:50;96567.00;;;16.90
30765;BMP180;494;48.744;10.106;2023-06-24T02:31:20;96590.00;;;16.90
30765;BMP180;494;48.744;10.106;2023-06-24T02:33:52;96568.00;;;16.80
30765;BMP180;494;48.744;10.106;2023-06-24T02:36:21;96484.00;;;16.80
30765;BMP180;494;48.744;10.106;2023-06-24T02:38:52;96539.00;;;16.50
30765;BMP180;494;48.744;10.106;2023-06-24T02:41:21;96473.00;;;16.50
30765;BMP180;494;48.744;10.106;2023-06-24T02:43:50;96518.00;;;16.60
30765;BMP180;494;48.744;10.106;2023-06-24T02:46:21;96524.00;;;16.60
30765;BMP180;494;48.744;10.106;2023-06-24T02:48:53;96539.00;;;16.50
30765;BMP180;494;48.744;10.106;2023-06-24T02:51:22;96494.00;;;16.60
30765;BMP180;494;48.744;10.106;2023-06-24T02:53:52;96496.00;;;16.60
30765;BMP180;494;48.744;10.106;2023-06-24T02:56:21;96452.00;;;16.50
30765;BMP180;494;48.744;10.106;2023-06-24T02:58:53;96574.00;;;16.30
30765;BMP180;494;48.744;10.106;2023-06-24T03:01:22;96584.00;;;16.40
30765;BMP180;494;48.744;10.106;2023-06-24T03:03:57;96586.00;;;15.20
30765;BMP180;494;48.744;10.106;2023-06-24T03:06:26;96561.00;;;16.50
30765;BMP180;494;48.744;10.106;2023-06-24T03:08:55;96580.00;;;16.40
30765;BMP180;494;48.744;10.106;2023-06-24T03:11:26;96522.00;;;16.20
30765;BMP180;494;48.744;10.106;2023-06-24T03:13:56;96577.00;;;16.40
30765;BMP180;494;48.744;10.106;2023-06-24T03:16:24;96524.00;;;16.30
30765;BMP180;494;48.744;10.106;2023-06-24T03:18:53;96588.00;;;16.20
30765;BMP180;494;48.744;10.106;2023-06-24T03:21:25;96589.00;;;16.40
30765;BMP180;494;48.744;10.106;2023-06-24T03:23:56;96554.00;;;16.30
30765;BMP180;494;48.744;10.106;2023-06-24T03:26:32;96589.00;;;16.20
30765;BMP180;494;48.744;10.106;2023-06-24T03:29:01;96591.00;;;16.20
30765;BMP180;494;48.744;10.106;2023-06-24T03:31:30;96585.00;;;16.10
30765;BMP180;494;48.744;10.106;2023-06-24T03:33:59;96609.00;;;16.20
30765;BMP180;494;48.744;10.106;2023-06-24T03:36:29;96567.00;;;16.00
30765;BMP180;494;48.744;10.106;2023-06-24T03:38:58;96558.00;;;15.80
30765;BMP180;494;48.744;10.106;2023-06-24T03:41:27;96592.00;;;16.00
30765;BMP180;494;48.744;10.106;2023-06-24T03:43:55;96589.00;;;16.00
30765;BMP180;494;48.744;10.106;2023-06-24T03:46:24;96495.00;;;15.90
30765;BMP180;494;48.744;10.106;2023-06-24T03:48:53;96500.00;;;15.90
30765;BMP180;494;48.744;10.106;2023-06-24T03:51:22;96608.00;;;15.80
30765;BMP180;494;48.744;10.106;2023-06-24T03:53:52;96533.00;;;15.80
30765;BMP180;494;48.744;10.106;2023-06-24T03:56:21;96610.00;;;15.80
30765;BMP180;494;48.744;10.106;2023-06-24T03:58:50;96617.00;;;15.80
30765;BMP180;494;48.744;10.106;2023-06-24T04:01:19;96618.00;;;15.70
30765;BMP180;494;48.744;10.106;2023-06-24T04:03:48;96461.00;;;15.50
30765;BMP180;494;48.744;10.106;2023-06-24T04:06:17;96619.00;;;16.00
30765;BMP180;494;48.744;10.106;2023-06-24T04:08:46;96623.00;;;16.00
30765;BMP180;494;48.744;10.106;2023-06-24T04:11:17;96587.00;;;16.00
30765;BMP180;494;48.744;10.106;2023-06-24T04:13:48;96494.00;;;16.10
30765;BMP180;494;48.744;10.106;2023-06-24T04:16:17;96581.00;;;16.10
30765;BMP180;494;48.744;10.106;2023-06-24T04:18:45;96620.00;;;16.10
30765;BMP180;494;48.744;10.106;2023-06-24T04:21:14;96627.00;;;16.00
30765;BMP180;494;48.744;10.106;2023-06-24T04:23:43;96626.00;;;16.20
30765;BMP180;494;48.744;10.106;2023-06-24T04:26:11;96501.00;;;16.10
30765;BMP180;494;48.744;10.106;2023-06-24T04:28:41;96631.00;;;16.30
30765;BMP180;494;48.744;10.106;2023-06-24T04:31:10;96555.00;;;16.40
30765;BMP180;494;48.744;10.106;2023-06-24T04:33:39;96546.00;;;16.50
30765;BMP180;494;48.744;10.106;2023-06-24T04:36:07;96636.00;;;16.60
30765;BMP180;494;48.744;10.106;2023-06-24T04:38:36;96586.00;;;16.70
30765;BMP180;494;48.744;10.106;2023-06-24T04:41:05;96640.00;;;16.80
30765;BMP180;494;48.744;10.106;2023-06-24T04:43:34;96643.00;;;16.90
30765;BMP180;494;48.744;10.106;2023-06-24T04:46:05;96566.00;;;17.10
30765;BMP180;494;48.744;10.106;2023-06-24T04:48:34;96627.00;;;17.10
30765;BMP180;494;48.744;10.106;2023-06-24T04:51:03;96625.00;;;17.20
30765;BMP180;494;48.744;10.106;2023-06-24T04:53:32;96633.00;;;17.30
30765;BMP180;494;48.744;10.106;2023-06-24T04:56:01;96577.00;;;17.10
30765;BMP180;494;48.744;10.106;2023-06-24T04:58:29;96637.00;;;17.40
30765;BMP180;494;48.744;10.106;2023-06-24T05:00:58;96629.00;;;17.50
30765;BMP180;494;48.744;10.106;2023-06-24T05:03:28;96556.00;;;17.60
30765;BMP180;494;48.744;10.106;2023-06-24T05:05:57;96577.00;;;17.60
30765;BMP180;494;48.744;10.106;2023-06-24T05:08:28;96569.00;;;17.80
30765;BMP180;494;48.744;10.106;2023-06-24T05:11:11;96585.00;;;17.70
30765;BMP180;494;48.744;10.106;2023-06-24T05:13:40;96439.00;;;16.60
30765;BMP180;494;48.744;10.106;2023-06-24T05:16:09;96625.00;;;17.50
30765;BMP180;494;48.744;10.106;2023-06-24T05:18:39;96691.00;;;17.50
30765;BMP180;494;48.744;10.106;2023-06-24T05:21:08;96310.00;;;17.30
30765;BMP180;494;48.744;10.106;2023-06-24T05:23:37;96470.00;;;17.70
30765;BMP180;494;48.744;10.106;2023-06-24T05:26:06;96495.00;;;17.50
30765;BMP180;494;48.744;10.106;2023-06-24T05:28:35;96523.00;;;17.20
30765;BMP180;494;48.744;10.106;2023-06-24T05:31:03;96506.00;;;18.00
30765;BMP180;494;48.744;10.106;2023-06-24T05:33:32;96534.00;;;18.70
30765;BMP180;494;48.744;10.106;2023-06-24T05:36:03;96643.00;;;18.80
30765;BMP180;494;48.744;10.106;2023-06-24T05:38:33;96568.00;;;19.00
30765;BMP180;494;48.744;10.106;2023-06-24T05:41:02;96640.00;;;19.20
30765;BMP180;494;48.744;10.106;2023-06-24T05:43:31;96524.00;;;19.00
30765;BMP180;494;48.744;10.106;2023-06-24T05:46:00;96439.00;;;19.20
30765;BMP180;494;48.744;10.106;2023-06-24T05:48:29;96525.00;;;19.10
30765;BMP180;494;48.744;10.106;2023-06-24T05:50:57;96568.00;;;18.90
30765;BMP180;494;48.744;10.106;2023-06-24T05:53:28;96634.00;;;19.70
30765;BMP180;494;48.744;10.106;2023-06-24T05:55:57;96639.00;;;20.10
30765;BMP180;494;48.744;10.106;2023-06-24T05:58:25;96634.00;;;20.30
30765;BMP180;494;48.744;10.106;2023-06-24T06:00:54;96639.00;;;20.50
30765;BMP180;494;48.744;10.106;2023-06-24T06:03:23;96639.00;;;20.70
30765;BMP180;494;48.744;10.106;2023-06-24T06:05:52;96488.00;;;20.80
30765;BMP180;494;48.744;10.106;2023-06-24T06:08:21;96552.00;;;21.10
30765;BMP180;494;48.744;10.106;2023-06-24T06:10:51;96640.00;;;21.30
30765;BMP180;494;48.744;10.106;2023-06-24T06:13:21;96630.00;;;21.50
30765;BMP180;494;48.744;10.106;2023-06-24T06:15:50;96635.00;;;21.50
30765;BMP180;494;48.744;10.106;2023-06-24T06:18:19;96625.00;;;21.80
30765;BMP180;494;48.744;10.106;2023-06-24T06:20:47;96658.00;;;22.10
30765;BMP180;494;48.744;10.106;2023-06-24T06:23:16;96551.00;;;22.10
30765;BMP180;494;48.744;10.106;2023-06-24T06:25:47;96542.00;;;22.20
30765;BMP180;494;48.744;10.106;2023-06-24T06:28:17;96387.00;;;22.60
30765;BMP180;494;48.744;10.106;2023-06-24T06:30:48;96604.00;;;22.70
30765;BMP180;494;48.744;10.106;2023-06-24T06:33:17;96630.00;;;23.10
30765;BMP180;494;48.744;10.106;2023-06-24T06:35:45;96467.00;;;23.40
30765;BMP180;494;48.744;10.106;2023-06-24T06:38:14;96595.00;;;23.30
30765;BMP180;494;48.744;10.106;2023-06-24T06:40:43;96625.00;;;23.30
30765;BMP180;494;48.744;10.106;2023-06-24T06:43:12;96621.00;;;23.60
30765;BMP180;494;48.744;10.106;2023-06-24T06:45:42;96528.00;;;23.30
30765;BMP180;494;48.744;10.106;2023-06-24T06:48:12;96591.00;;;23.80
30765;BMP180;494;48.744;10.106;2023-06-24T06:50:45;96570.00;;;24.10
30765;BMP180;494;48.744;10.106;2023-06-24T06:53:13;96626.00;;;24.10
30765;BMP180;494;48.744;10.106;2023-06-24T06:55:43;96623.00;;;24.30
30765;BMP180;494;48.744;10.106;2023-06-24T06:58:11;96541.00;;;24.20
30765;BMP180;494;48.744;10.106;2023-06-24T07:00:45;96541.00;;;24.70
30765;BMP180;494;48.744;10.106;2023-06-24T07:03:13;96626.00;;;24.50
30765;BMP180;494;48.744;10.106;2023-06-24T07:05:42;96552.00;;;25.00
30765;BMP180;494;48.744;10.106;2023-06-24T07:08:11;96564.00;;;25.10
30765;BMP180;494;48.744;10.106;2023-06-24T07:10:40;96628.00;;;25.10
30765;BMP180;494;48.744;10.106;2023-06-24T07:13:16;96558.00;;;25.40
30765;BMP180;494;48.744;10.106;2023-06-24T07:15:46;96509.00;;;25.40
30765;BMP180;494;48.744;10.106;2023-06-24T07:18:15;96623.00;;;25.40
30765;BMP180;494;48.744;10.106;2023-06-24T07:20:44;96582.00;;;25.60
30765;BMP180;494;48.744;10.106;2023-06-24T07:23:13;96631.00;;;25.70
30765;BMP180;494;48.744;10.106;2023-06-24T07:25:42;96633.00;;;25.90
30765;BMP180;494;48.744;10.106;2023-06-24T07:28:11;96645.00;;;26.10
30765;BMP180;494;48.744;10.106;2023-06-24T07:30:42;96628.00;;;26.30
30765;BMP180;494;48.744;10.106;2023-06-24T07:33:13;96444.00;;;26.50
30765;BMP180;494;48.744;10.106;2023-06-24T07:35:42;96627.00;;;26.70
30765;BMP180;494;48.744;10.106;2023-06-24T07:38:11;96354.00;;;26.70
30765;BMP180;494;48.744;10.106;2023-06-24T07:40:40;96565.00;;;27.30
30765;BMP180;494;48.744;10.106;2023-06-24T07:43:08;96584.00;;;27.60
30765;BMP180;494;48.744;10.106;2023-06-24T07:45:37;96632.00;;;27.70
30765;BMP180;494;48.744;10.106;2023-06-24T07:48:06;96630.00;;;27.80
30765;BMP180;494;48.744;10.106;2023-06-24T07:50:38;96530.00;;;27.30
30765;BMP180;494;48.744;10.106;2023-06-24T07:53:07;96632.00;;;27.30
30765;BMP180;494;48.744;10.106;2023-06-24T07:55:35;96401.00;;;26.90
30765;BMP180;494;48.744;10.106;2023-06-24T07:58:04;96467.00;;;26.80
30765;BMP180;494;48.744;10.106;2023-06-24T08:00:34;96552.00;;;26.50
30765;BMP180;494;48.744;10.106;2023-06-24T08:03:07;96651.00;;;26.40
30765;BMP180;494;48.744;10.106;2023-06-24T08:05:37;96601.00;;;25.70
30765;BMP180;494;48.744;10.106;2023-06-24T08:08:08;96535.00;;;25.70
30765;BMP180;494;48.744;10.106;2023-06-24T08:10:37;96632.00;;;26.10
30765;BMP180;494;48.744;10.106;2023-06-24T08:13:06;96632.00;;;26.10
30765;BMP180;494;48.744;10.106;2023-06-24T08:15:34;96334.00;;;26.60
30765;BMP180;494;48.744;10.106;2023-06-24T08:18:07;96536.00;;;26.90
30765;BMP180;494;48.744;10.106;2023-06-24T08:20:37;96560.00;;;27.20
30765;BMP180;494;48.744;10.106;2023-06-24T08:23:07;96623.00;;;27.50
30765;BMP180;494;48.744;10.106;2023-06-24T08:25:36;96643.00;;;28.00
30765;BMP180;494;48.744;10.106;2023-06-24T08:28:05;96572.00;;;28.10
30765;BMP180;494;48.744;10.106;2023-06-24T08:30:34;96568.00;;;27.90
30765;BMP180;494;48.744;10.106;2023-06-24T08:33:03;96450.00;;;28.00
30765;BMP180;494;48.744;10.106;2023-06-24T08:35:33;96560.00;;;26.70
30765;BMP180;494;48.744;10.106;2023-06-24T08:38:04;96619.00;;;27.80
30765;BMP180;494;48.744;10.106;2023-06-24T08:40:34;96641.00;;;27.80
30765;BMP180;494;48.744;10.106;2023-06-24T08:43:03;96547.00;;;27.60
30765;BMP180;494;48.744;10.106;2023-06-24T08:45:32;96606.00;;;26.80
30765;BMP180;494;48.744;10.106;2023-06-24T08:48:02;96395.00;;;27.80
30765;BMP180;494;48.744;10.106;2023-06-24T08:50:37;96630.00;;;27.90
30765;BMP180;494;48.744;10.106;2023-06-24T08:53:10;96560.00;;;28.30
30765;BMP180;494;48.744;10.106;2023-06-24T08:55:43;96475.00;;;28.60
30765;BMP180;494;48.744;10.106;2023-06-24T08:58:13;96488.00;;;28.30
30765;BMP180;494;48.744;10.106;2023-06-24T09:00:43;96611.00;;;27.80
30765;BMP180;494;48.744;10.106;2023-06-24T09:03:12;96631.00;;;27.70
30765;BMP180;494;48.744;10.106;2023-06-24T09:05:42;96634.00;;;27.40
30765;BMP180;494;48.744;10.106;2023-06-24T09:08:13;96634.00;;;27.00
30765;BMP180;494;48.744;10.106;2023-06-24T09:10:43;96634.00;;;26.90
30765;BMP180;494;48.744;10.106;2023-06-24T09:13:11;96635.00;;;26.60
30765;BMP180;494;48.744;10.106;2023-06-24T09:15:40;96617.00;;;26.30
30765;BMP180;494;48.744;10.106;2023-06-24T09:18:09;96625.00;;;26.70
30765;BMP180;494;48.744;10.106;2023-06-24T09:20:42;96595.00;;;26.50
30765;BMP180;494;48.744;10.106;2023-06-24T09:23:17;96621.00;;;26.30
30765;BMP180;494;48.744;10.106;2023-06-24T09:25:57;96657.00;;;26.40
30765;BMP180;494;48.744;10.106;2023-06-24T09:28:27;96379.00;;;26.30
30765;BMP180;494;48.744;10.106;2023-06-24T09:31:06;96620.00;;;26.00
30765;BMP180;494;48.744;10.106;2023-06-24T09:33:40;96543.00;;;26.30
30765;BMP180;494;48.744;10.106;2023-06-24T09:36:13;96602.00;;;26.40
30765;BMP180;494;48.744;10.106;2023-06-24T09:38:43;96616.00;;;27.00
30765;BMP180;494;48.744;10.106;2023-06-24T09:41:14;96411.00;;;27.20
30765;BMP180;494;48.744;10.106;2023-06-24T09:43:44;96585.00;;;27.20
30765;BMP180;494;48.744;10.106;2023-06-24T09:46:14;96199.00;;;27.00
30765;BMP180;494;48.744;10.106;2023-06-24T09:48:46;96580.00;;;27.00
30765;BMP180;494;48.744;10.106;2023-06-24T09:51:18;96585.00;;;26.30
30765;BMP180;494;48.744;10.106;2023-06-24T09:53:56;96540.00;;;25.70
30765;BMP180;494;48.744;10.106;2023-06-24T09:56:25;96301.00;;;26.60
30765;BMP180;494;48.744;10.106;2023-06-24T09:58:55;96349.00;;;26.30
30765;BMP180;494;48.744;10.106;2023-06-24T10:01:24;96601.00;;;26.60
30765;BMP180;494;48.744;10.106;2023-06-24T10:03:54;96596.00;;;26.80
30765;BMP180;494;48.744;10.106;2023-06-24T10:06:24;96523.00;;;26.80
30765;BMP180;494;48.744;10.106;2023-06-24T10:08:57;96366.00;;;26.80
30765;BMP180;494;48.744;10.106;2023-06-24T10:11:33;96486.00;;;27.50
30765;BMP180;494;48.744;10.106;2023-06-24T10:14:11;96548.00;;;27.70
30765;BMP180;494;48.744;10.106;2023-06-24T10:16:41;96595.00;;;27.90
30765;BMP180;494;48.744;10.106;2023-06-24T10:19:22;96456.00;;;28.00
30765;BMP180;494;48.744;10.106;2023-06-24T10:21:59;96589.00;;;27.80
30765;BMP180;494;48.744;10.106;2023-06-24T10:24:46;96620.00;;;27.60
30765;BMP180;494;48.744;10.106;2023-06-24T10:27:18;96311.00;;;27.40
30765;BMP180;494;48.744;10.106;2023-06-24T10:29:54;96580.00;;;27.40
30765;BMP180;494;48.744;10.106;2023-06-24T10:32:26;96480.00;;;27.70
30765;BMP180;494;48.744;10.106;2023-06-24T10:34:57;96525.00;;;27.70
30765;BMP180;494;48.744;10.106;2023-06-24T10:37:32;96531.00;;;27.90
30765;BMP180;494;48.744;10.106;2023-06-24T10:40:05;96567.00;;;28.40
30765;BMP180;494;48.744;10.106;2023-06-24T10:42:39;96587.00;;;28.80
30765;BMP180;494;48.744;10.106;2023-06-24T10:45:18;96497.00;;;29.20
30765;BMP180;494;48.744;10.106;2023-06-24T10:47:50;96559.00;;;29.30
30765;BMP180;494;48.744;10.106;2023-06-24T10:50:21;96559.00;;;28.90
30765;BMP180;494;48.744;10.106;2023-06-24T10:52:53;96502.00;;;29.30
30765;BMP180;494;48.744;10.106;2023-06-24T10:55:25;96519.00;;;29.60
30765;BMP180;494;48.744;10.106;2023-06-24T10:57:54;96564.00;;;29.90
30765;BMP180;494;48.744;10.106;2023-06-24T11:00:27;96536.00;;;30.30
30765;BMP180;494;48.744;10.106;2023-06-24T11:02:56;96489.00;;;30.60
30765;BMP180;494;48.744;10.106;2023-06-24T11:05:25;96514.00;;;30.80
30765;BMP180;494;48.744;10.106;2023-06-24T11:07:57;96498.00;;;30.90
30765;BMP180;494;48.744;10.106;2023-06-24T11:10:27;96526.00;;;31.10
30765;BMP180;494;48.744;10.106;2023-06-24T11:12:56;96519.00;;;31.40
30765;BMP180;494;48.744;10.106;2023-06-24T11:15:26;96465.00;;;31.20
30765;BMP180;494;48.744;10.106;2023-06-24T11:17:54;96455.00;;;31.30
30765;BMP180;494;48.744;10.106;2023-06-24T11:20:23;96520.00;;;31.60
30765;BMP180;494;48.744;10.106;2023-06-24T11:22:51;96475.00;;;31.50
30765;BMP180;494;48.744;10.106;2023-06-24T11:25:22;96530.00;;;31.50
30765;BMP180;494;48.744;10.106;2023-06-24T11:27:52;96525.00;;;31.50
30765;BMP180;494;48.744;10.106;2023-06-24T11:30:21;96444.00;;;31.60
30765;BMP180;494;48.744;10.106;2023-06-24T11:32:50;96519.00;;;31.80
30765;BMP180;494;48.744;10.106;2023-06-24T11:35:19;96517.00;;;31.90
30765;BMP180;494;48.744;10.106;2023-06-24T11:37:48;96517.00;;;32.30
30765;BMP180;494;48.744;10.106;2023-06-24T11:40:19;96515.00;;;32.50
30765;BMP180;494;48.744;10.106;2023-06-24T11:42:49;96478.00;;;32.40
30765;BMP180;494;48.744;10.106;2023-06-24T11:45:22;96392.00;;;33.00
30765;BMP180;494;48.744;10.106;2023-06-24T11:47:50;96503.00;;;33.40
30765;BMP180;494;48.744;10.106;2023-06-24T11:50:26;96503.00;;;33.50
30765;BMP180;494;48.744;10.106;2023-06-24T11:52:55;96506.00;;;33.20
30765;BMP180;494;48.744;10.106;2023-06-24T11:55:25;96453.00;;;31.80
30765;BMP180;494;48.744;10.106;2023-06-24T11:57:57;96450.00;;;31.70
30765;BMP180;494;48.744;10.106;2023-06-24T12:00:29;96471.00;;;31.40
30765;BMP180;494;48.744;10.106;2023-06-24T12:03:00;96438.00;;;30.90
30765;BMP180;494;48.744;10.106;2023-06-24T12:05:33;96493.00;;;31.50
30765;BMP180;494;48.744;10.106;2023-06-24T12:08:04;96454.00;;;31.70
30765;BMP180;494;48.744;10.106;2023-06-24T12:10:34;96365.00;;;32.70
30765;BMP180;494;48.744;10.106;2023-06-24T12:13:05;96477.00;;;33.20
30765;BMP180;494;48.744;10.106;2023-06-24T12:15:37;96474.00;;;33.50
30765;BMP180;494;48.744;10.106;2023-06-24T12:18:06;96384.00;;;33.60
30765;BMP180;494;48.744;10.106;2023-06-24T12:20:35;96496.00;;;33.90
30765;BMP180;494;48.744;10.106;2023-06-24T12:23:06;96396.00;;;33.90
30765;BMP180;494;48.744;10.106;2023-06-24T12:25:34;96469.00;;;33.60
30765;BMP180;494;48.744;10.106;2023-06-24T12:28:03;96476.00;;;33.50
30765;BMP180;494;48.744;10.106;2023-06-24T12:30:32;96396.00;;;33.80
30765;BMP180;494;48.744;10.106;2023-06-24T12:33:03;96456.00;;;34.10
30765;BMP180;494;48.744;10.106;2023-06-24T12:35:36;96432.00;;;33.80
30765;BMP180;494;48.744;10.106;2023-06-24T12:38:04;96454.00;;;34.30
30765;BMP180;494;48.744;10.106;2023-06-24T12:40:33;96449.00;;;34.60
30765;BMP180;494;48.744;10.106;2023-06-24T12:43:02;96452.00;;;34.90
30765;BMP180;494;48.744;10.106;2023-06-24T12:45:32;96459.00;;;35.00
30765;BMP180;494;48.744;10.106;2023-06-24T12:48:02;96441.00;;;35.10
30765;BMP180;494;48.744;10.106;2023-06-24T12:50:31;96442.00;;;35.10
30765;BMP180;494;48.744;10.106;2023-06-24T12:53:00;96378.00;;;35.20
30765;BMP180;494;48.744;10.106;2023-06-24T12:55:30;96444.00;;;35.90
30765;BMP180;494;48.744;10.106;2023-06-24T12:57:59;96457.00;;;35.60
30765;BMP180;494;48.744;10.106;2023-06-24T13:00:28;96441.00;;;36.10
30765;BMP180;494;48.744;10.106;2023-06-24T13:02:56;96447.00;;;36.40
30765;BMP180;494;48.744;10.106;2023-06-24T13:05:27;96397.00;;;36.20
30765;BMP180;494;48.744;10.106;2023-06-24T13:07:55;96438.00;;;36.70
30765;BMP180;494;48.744;10.106;2023-06-24T13:10:24;96445.00;;;36.90
30765;BMP180;494;48.744;10.106;2023-06-24T13:12:53;96442.00;;;37.20
30765;BMP180;494;48.744;10.106;2023-06-24T13:15:23;96407.00;;;36.50
30765;BMP180;494;48.744;10.106;2023-06-24T13:17:51;96437.00;;;36.50
30765;BMP180;494;48.744;10.106;2023-06-24T13:20:20;96433.00;;;37.00
30765;BMP180;494;48.744;10.106;2023-06-24T13:22:50;96447.00;;;36.70
30765;BMP180;494;48.744;10.106;2023-06-24T13:25:19;96439.00;;;36.00
30765;BMP180;494;48.744;10.106;2023-06-24T13:27:48;96441.00;;;35.00
30765;BMP180;494;48.744;10.106;2023-06-24T13:30:17;96347.00;;;35.30
30765;BMP180;494;48.744;10.106;2023-06-24T13:32:46;96435.00;;;36.20
30765;BMP180;494;48.744;10.106;2023-06-24T13:35:16;96442.00;;;36.70
30765;BMP180;494;48.744;10.106;2023-06-24T13:37:45;96359.00;;;36.90
30765;BMP180;494;48.744;10.106;2023-06-24T13:40:15;96370.00;;;37.00
30765;BMP180;494;48.744;10.106;2023-06-24T13:42:44;96428.00;;;36.50
30765;BMP180;494;48.744;10.106;2023-06-24T13:45:13;96425.00;;;36.70
30765;BMP180;494;48.744;10.106;2023-06-24T13:47:41;96426.00;;;37.30
30765;BMP180;494;48.744;10.106;2023-06-24T13:50:10;96393.00;;;37.70
30765;BMP180;494;48.744;10.106;2023-06-24T13:52:39;96405.00;;;36.70
30765;BMP180;494;48.744;10.106;2023-06-24T13:55:09;96368.00;;;35.30
30765;BMP180;494;48.744;10.106;2023-06-24T13:57:40;96347.00;;;34.50
30765;BMP180;494;48.744;10.106;2023-06-24T14:00:10;96429.00;;;34.10
30765;BMP180;494;48.744;10.106;2023-06-24T14:02:39;96370.00;;;33.50
30765;BMP180;494;48.744;10.106;2023-06-24T14:05:09;96432.00;;;34.50
30765;BMP180;494;48.744;10.106;2023-06-24T14:07:37;96422.00;;;35.50
30765;BMP180;494;48.744;10.106;2023-06-24T14:10:07;96413.00;;;36.40
30765;BMP180;494;48.744;10.106;2023-06-24T14:12:36;96384.00;;;37.10
30765;BMP180;494;48.744;10.106;2023-06-24T14:15:09;96406.00;;;37.40
30765;BMP180;494;48.744;10.106;2023-06-24T14:17:37;96401.00;;;37.60
30765;BMP180;494;48.744;10.106;2023-06-24T14:20:08;96400.00;;;37.90
30765;BMP180;494;48.744;10.106;2023-06-24T14:22:38;96375.00;;;37.70
30765;BMP180;494;48.744;10.106;2023-06-24T14:25:08;96405.00;;;36.80
30765;BMP180;494;48.744;10.106;2023-06-24T14:27:38;96334.00;;;35.10
30765;BMP180;494;48.744;10.106;2023-06-24T14:30:11;96345.00;;;34.30
30765;BMP180;494;48.744;10.106;2023-06-24T14:32:40;96309.00;;;33.30
30765;BMP180;494;48.744;10.106;2023-06-24T14:35:10;96381.00;;;33.00
30765;BMP180;494;48.744;10.106;2023-06-24T14:37:40;96410.00;;;32.80
30765;BMP180;494;48.744;10.106;2023-06-24T14:40:09;96393.00;;;32.20